x

Frying Pan Shoals, Nc Buoy (41013) Wave Buoy

11:50am - Thu 11th Feb 2016 All times are EST. -5 hours from GMT.

  • Sig Wave height 5.2ft
  • Swell Direction
  • Peak Period 8s
  • Average Period 5s
  • Wind
    16mph, 20mph gusts
  • Sea Temp 62°f
  • Air Temp 40°f
  • Sea Pressure 1024mb
  • Frying Pan Shoals, Nc Buoy
  • Frying Pan Shoals, Nc Buoy

More Historic Weather Station data

Upgrade to MSW Pro to gain access to the past 30 days of data for over 8000 Wavebouys and Weather Stations around the globe.

Join Pro

Comparision Forecast

View Surf forecast
   
Thu 02/11 11:50am 5ft 8s 5s 16 20 mph 1024mb 62f 40f
11:40am  -   -   -  16 20 mph 1024.2mb 62f 40f
11:30am  -   -   -  16 22 mph - 62f 40f
11:20am  -   -   -  13 20 mph 1024.3mb 62f 40f
11:10am  -   -   -  13 20 mph 1024.3mb 62f 40f
11:00am  -   -   -  13 20 mph 1024.3mb 62f 40f
10:50am 5.5ft 8s 6s 13 20 mph 1024.3mb 62f 39f
10:40am 5.5ft  -  6s 13 18 mph 1024.5mb 62f 40f
10:30am  -   -   -  11 18 mph 1024.5mb 62f 39f
10:20am  -   -   -  13 18 mph 1024.5mb 62f 39f
10:10am  -   -   -  11 16 mph 1024.5mb 62f 39f
10:00am  -   -   -  11 18 mph 1024.5mb 62f 39f
9:50am 6ft 7s 6s 11 18 mph 1024.5mb - 39f
9:40am  -   -   -  11 18 mph 1024.5mb 62f 38f
9:30am 6ft  -  6s 11 18 mph 1024.5mb 62f 38f
9:20am  -   -   -  11 16 mph 1024.5mb 62f 38f
9:10am  -   -   -  11 20 mph 1024.3mb 62f 38f
9:00am  -   -   -  11 18 mph 1024.3mb 62f 38f
8:50am 5.5ft 8s 6s 11 18 mph 1024mb 62f 38f
8:40am 5.5ft  -  6s 11 18 mph 1023.8mb 62f 38f
8:30am  -   -   -  11 18 mph 1023.9mb 62f 38f
8:20am  -   -   -  13 20 mph 1023.6mb 62f 38f
8:10am  -   -   -  11 20 mph 1023.5mb 62f 38f
8:00am  -   -   -  13 20 mph 1023.4mb 61f 38f
7:50am 7ft 8s 6s 16 20 mph 1023.4mb 61f 38f
7:40am  -   -   -  13 20 mph 1023.3mb 60f 37f
7:30am  -   -   -  16 22 mph 1023mb 60f 37f
7:20am  -   -   -  16 25 mph 1022.6mb 60f 38f
7:10am  -   -   -  18 25 mph 1022.5mb 60f 38f
7:00am  -   -   -  18 27 mph 1022.4mb 60f 38f
6:50am 6.5ft 8s 6s 18 25 mph 1022.3mb 59f 38f
6:40am 6.5ft  -  6s 18 22 mph 1022mb 59f 38f
6:30am  -   -   -  20 25 mph 1022mb 59f 38f
6:20am  -   -   -  20 25 mph 1021.6mb 59f 38f
6:10am  -   -   -  20 27 mph 1021.6mb 59f 39f
6:00am  -   -   -  20 29 mph 1021.5mb 59f 39f
5:50am 7.5ft 8s 6s 22 29 mph 1021.4mb 59f 39f
5:40am 7.5ft  -  6s 22 29 mph 1021.1mb 59f 39f
5:30am  -   -   -  22 29 mph 1020.9mb 59f 39f
5:20am  -   -   -  22 29 mph 1020.8mb 59f 40f
5:10am  -   -   -  22 29 mph 1020.8mb 59f 40f
5:00am  -   -   -  22 29 mph 1020.6mb 59f 40f
4:50am 8ft 8s 6s 25 31 mph 1020.8mb 59f 40f
4:40am  -   -   -  22 31 mph 1020.8mb 59f 41f
4:30am  -   -   -  22 31 mph 1020.8mb 59f 41f
4:20am  -   -   -  22 31 mph 1020.6mb 59f 41f
4:10am  -   -   -  22 29 mph 1020.5mb 59f 41f
4:00am  -   -   -  22 31 mph 1020.4mb 59f 41f
3:50am 8.5ft 8s 6s 25 34 mph 1020.1mb 59f 41f
3:40am  -   -   -  27 36 mph 1020.1mb 59f 42f
3:30am  -   -   -  25 31 mph 1020.1mb 59f 42f
3:20am  -   -   -  27 34 mph 1020mb 59f 42f
3:10am  -   -   -  27 36 mph 1019.6mb 59f 42f
3:00am  -   -   -  27 34 mph 1019.5mb 59f 42f
2:50am 9ft 8s 6s 27 34 mph 1019.8mb 59f 42f
2:40am 9ft  -  6s 27 36 mph 1019.6mb 59f 42f
2:30am  -   -   -  29 36 mph 1019.6mb 59f 42f
2:20am  -   -   -  27 34 mph 1019.6mb 59f 42f
2:10am  -   -   -  27 36 mph 1019.5mb 59f 42f
2:00am  -   -   -  27 34 mph 1019.3mb 59f 42f
1:50am 8.5ft 7s 5s 29 38 mph 1019.5mb 59f 42f
1:40am  -   -   -  29 38 mph 1019.5mb 59f 42f
1:30am  -   -   -  29 38 mph 1019.5mb 59f 43f
1:20am  -   -   -  29 38 mph 1019.4mb 60f 42f
1:10am  -   -   -  31 40 mph 1019.5mb 60f 42f
1:00am  -   -   -  29 40 mph 1019.6mb 60f 43f
12:50am 9ft 6s 6s 31 40 mph 1019.6mb 60f 43f
12:40am  -   -   -  31 40 mph 1019.8mb 61f 43f
12:30am  -   -   -  31 45 mph 1019.6mb 60f 43f
12:20am  -   -   -  31 43 mph 1019.8mb 61f 43f
12:10am  -   -   -  31 40 mph 1019.5mb 61f 43f
12:00am  -   -   -  31 40 mph 1019.5mb 61f 43f
Wed 02/10 11:50pm 8.5ft 6s 6s 31 40 mph 1019.5mb 60f 43f
11:40pm  -   -   -  31 38 mph 1019.3mb 60f 43f
11:30pm  -   -   -  31 40 mph 1019.3mb - -
11:20pm  -   -   -  29 36 mph 1019.3mb 61f 43f
11:10pm  -   -   -  31 43 mph 1019.1mb 61f 43f
11:00pm  -   -   -  29 40 mph 1019mb 61f 43f
10:50pm 9ft 6s 5s 29 40 mph 1019mb 61f 43f
10:40pm  -   -   -  29 40 mph 1019mb 62f 43f
10:30pm  -   -   -  29 38 mph 1019mb 62f 43f
10:20pm  -   -   -  29 38 mph 1019mb 62f 43f
10:10pm  -   -   -  29 38 mph 1018.9mb 62f 43f
10:00pm  -   -   -  29 38 mph 1018.8mb 62f 43f
9:50pm 8ft 6s 5s 25 34 mph 1018.5mb 62f 43f
9:40pm  -   -   -  27 36 mph 1018.1mb 62f 43f
9:30pm  -   -   -  27 36 mph 1018mb 62f 43f
9:20pm  -   -   -  27 38 mph 1018mb 62f 43f
9:10pm  -   -   -  25 36 mph 1018mb 62f 43f
9:00pm  -   -   -  27 34 mph 1018mb 62f 43f
8:50pm 8ft 9s 5s 27 34 mph 1017.8mb 62f 43f
8:40pm 8ft  -  5s 27 34 mph 1017.5mb 62f 43f
8:30pm  -   -   -  27 36 mph 1017.3mb 62f 43f
8:20pm  -   -   -  27 34 mph 1017.1mb 62f 43f
8:10pm  -   -   -  29 38 mph 1017.5mb 62f 43f
8:00pm  -   -   -  27 34 mph 1017.3mb 61f 43f
7:50pm 8ft 9s 6s 29 36 mph 1017.3mb 61f 42f
7:40pm  -   -   -  27 38 mph 1017mb 61f 42f
7:30pm  -   -   -  29 36 mph 1017mb 61f 42f
7:20pm  -   -   -  29 36 mph 1016.8mb 61f 43f
7:10pm  -   -   -  29 38 mph 1016.6mb 61f 43f
7:00pm  -   -   -  29 36 mph 1016.4mb 60f 43f
6:50pm 8.5ft 9s 6s 29 36 mph 1016.3mb 60f 43f
6:40pm  -   -   -  27 36 mph 1016.1mb 59f 43f
6:30pm  -   -   -  29 38 mph 1015.8mb 59f 43f
6:20pm  -   -   -  27 36 mph 1015.6mb 59f 43f
6:10pm  -   -   -  27 36 mph 1015.6mb 59f 43f
6:00pm  -   -   -  27 38 mph 1015.5mb 59f 43f
5:50pm 7.5ft 9s 5s 29 38 mph 1015.4mb 59f 42f
5:40pm  -   -   -  29 40 mph 1015.3mb 59f 43f
5:30pm  -   -   -  27 38 mph 1015.1mb 59f 43f
5:20pm  -   -   -  27 38 mph 1015mb 59f 43f
5:10pm  -   -   -  27 38 mph 1014.8mb 59f 42f
5:00pm  -   -   -  25 34 mph 1014.8mb 59f 42f
4:50pm 7ft 9s 6s 27 36 mph 1014.5mb 59f 42f
4:40pm  -   -   -  27 34 mph 1014.3mb 59f 42f
4:30pm  -   -   -  25 34 mph 1014.1mb 59f 42f
4:20pm  -   -   -  25 31 mph 1014.1mb 59f 42f
4:10pm  -   -   -  25 36 mph 1014mb 59f 42f
4:00pm  -   -   -  25 34 mph 1014mb 59f 42f
3:50pm 8ft 9s 6s 27 31 mph 1013.9mb 59f 41f
3:40pm  -   -   -  22 31 mph 1013.8mb 59f 41f
3:30pm  -   -   -  25 31 mph 1013.5mb 59f 41f
3:20pm  -   -   -  25 36 mph 1013.5mb 59f 41f
3:10pm  -   -   -  25 34 mph 1013.4mb 59f 41f
3:00pm  -   -   -  22 31 mph 1013.5mb 58f 41f
2:50pm 7.5ft 8s 6s 22 31 mph 1013.5mb 58f 40f
2:40pm  -   -   -  22 31 mph 1013.4mb 58f 40f
2:30pm  -   -   -  20 29 mph 1013.4mb 58f 40f
2:20pm  -   -   -  20 27 mph 1013.3mb 58f 40f
2:10pm  -   -   -  22 29 mph 1013.3mb 59f 40f
2:00pm  -   -   -  22 29 mph 1013.4mb 59f 40f
1:50pm 7ft 9s 6s 20 29 mph 1013.5mb 59f 40f
1:40pm  -   -   -  20 29 mph 1013.5mb 59f 40f
1:30pm  -   -   -  18 27 mph 1013.5mb 59f 39f
1:20pm  -   -   -  18 27 mph 1013.5mb 59f 39f
1:10pm  -   -   -  20 27 mph 1013.5mb 59f 39f
1:00pm  -   -   -  20 27 mph 1013.8mb 60f 39f
12:50pm 7ft 10s 6s 20 27 mph 1013.9mb 60f 39f
12:40pm  -   -   -  18 25 mph 1013.9mb 60f 39f
12:30pm  -   -   -  20 25 mph 1014.3mb 60f 39f
12:20pm  -   -   -  20 29 mph 1014.4mb 60f 39f
12:10pm  -   -   -  18 25 mph 1014.5mb 60f 39f
12:00pm  -   -   -  20 25 mph 1014.8mb 60f 39f
11:50am 7ft 9s 6s 18 25 mph 1015mb 60f 39f
11:40am  -   -   -  20 25 mph 1015.1mb 60f 39f
11:30am  -   -   -  20 27 mph 1015mb 60f 39f
11:20am  -   -   -  18 27 mph 1015.1mb 60f 39f
11:10am  -   -   -  20 27 mph 1015.3mb 60f 39f
11:00am  -   -   -  20 27 mph 1015.4mb 60f 39f
10:50am 8ft 9s 6s 22 29 mph 1015.4mb 60f 39f
10:40am  -   -   -  20 31 mph 1015.4mb 60f 39f
10:30am  -   -   -  20 27 mph 1015.5mb 60f 39f
10:20am  -   -   -  20 27 mph 1015.5mb 60f 39f
10:10am  -   -   -  20 27 mph 1015.5mb 60f 39f
10:00am  -   -   -  20 27 mph 1015.4mb 60f 39f
9:50am 8ft 9s 6s 20 29 mph 1015.5mb 60f 39f
9:40am  -   -   -  22 29 mph 1015.5mb 60f 40f
9:30am  -   -   -  22 29 mph 1015.5mb 60f 40f
9:20am  -   -   -  20 29 mph 1015.5mb 60f 40f
9:10am  -   -   -  20 27 mph 1015.5mb 60f 40f
9:00am  -   -   -  22 29 mph 1015.5mb 60f 40f
8:50am 7ft 10s 6s 22 29 mph 1015.3mb 60f 40f
8:40am  -   -   -  22 29 mph 1015.1mb 60f 40f
8:30am  -   -   -  22 29 mph 1015mb 60f 40f
8:20am  -   -   -  22 29 mph 1015mb 60f 40f
8:10am  -   -   -  22 29 mph 1014.8mb 60f 40f
8:00am  -   -   -  22 27 mph 1014.5mb - -
7:50am 7.5ft 8s 5s 20 27 mph 1014.3mb 60f 40f
7:40am  -   -   -  22 29 mph 1014.3mb 60f 40f
7:30am  -   -   -  22 29 mph 1014.3mb 60f 40f
7:20am  -   -   -  22 31 mph 1014.1mb 59f 41f
7:10am  -   -   -  22 31 mph 1014.1mb 59f 40f
7:00am  -   -   -  25 31 mph 1014mb 59f 41f
6:50am 7.5ft 6s 5s 22 31 mph 1013.9mb 58f 41f
6:40am  -   -   -  25 31 mph 1013.8mb 58f 41f
6:30am  -   -   -  25 31 mph 1013.6mb 58f 41f
6:20am  -   -   -  25 31 mph 1013.6mb 58f 41f
6:10am  -   -   -  25 31 mph 1013.4mb 58f 41f
6:00am  -   -   -  25 34 mph 1013.3mb 58f 41f
5:50am 8ft 7s 6s 25 34 mph 1013.1mb 58f 41f
5:40am  -   -   -  25 31 mph 1013mb 58f 41f
5:30am  -   -   -  27 34 mph 1012.9mb 58f 41f
5:20am  -   -   -  25 34 mph 1013mb 58f 41f
5:10am  -   -   -  27 34 mph 1012.8mb 58f 42f
5:00am  -   -   -  27 34 mph 1012.6mb 58f 42f
4:50am 8ft 7s 6s 27 34 mph 1012.6mb 58f 42f
4:40am  -   -   -  25 34 mph 1012.5mb 58f 42f
4:30am  -   -   -  25 36 mph 1012.5mb 57f 42f
4:20am  -   -   -  27 34 mph 1012.3mb 57f 42f
4:10am  -   -   -  29 36 mph 1012.3mb 57f 42f
4:00am  -   -   -  27 36 mph 1012mb 57f 42f
3:50am 8.5ft 6s 6s 27 34 mph 1012mb 57f 42f
3:40am  -   -   -  25 34 mph 1011.9mb 57f 42f
3:30am  -   -   -  27 38 mph 1011.9mb 57f 42f
3:20am  -   -   -  27 34 mph 1011.5mb 57f 43f
3:10am  -   -   -  27 36 mph 1011.8mb 57f 42f
3:00am  -   -   -  27 34 mph 1011.5mb 57f 43f
2:50am 8.5ft 8s 6s 29 38 mph 1011.5mb 57f 43f
2:40am  -   -   -  29 36 mph 1011.5mb 57f 42f
2:30am  -   -   -  29 38 mph 1011.6mb 57f 42f
2:20am  -   -   -  29 36 mph 1011.8mb 58f 42f
2:10am  -   -   -  29 38 mph 1011.6mb 57f 43f
2:00am  -   -   -  27 36 mph 1011.5mb 58f 43f
1:50am 8ft 8s 6s 27 36 mph 1011.5mb 58f 44f
1:40am  -   -   -  27 36 mph 1011.9mb 58f 44f
1:30am  -   -   -  27 36 mph 1011.9mb 58f 44f
1:20am  -   -   -  27 38 mph 1011.9mb 57f 44f
1:10am  -   -   -  29 36 mph 1011.9mb 57f 44f
1:00am  -   -   -  29 36 mph 1011.8mb 57f 44f
12:50am 9.5ft 8s 6s 29 38 mph 1011.9mb 57f 44f
12:40am  -   -   -  27 36 mph 1011.9mb 57f 44f
12:30am  -   -   -  29 34 mph 1011.9mb 57f 44f
12:20am  -   -   -  27 36 mph 1011.9mb 57f 44f
12:10am  -   -   -  27 36 mph 1011.9mb 57f 45f
12:00am  -   -   -  27 34 mph 1011.9mb 57f 45f
Tue 02/09 11:50pm 10ft 9s 6s 29 34 mph 1011.8mb 57f 45f
11:40pm  -   -   -  27 36 mph 1011.5mb 57f 45f
11:30pm  -   -   -  29 34 mph 1011.6mb 57f 45f
11:20pm  -   -   -  27 34 mph 1011.5mb - 45f
11:10pm  -   -   -  27 34 mph 1011.9mb 57f 45f
11:00pm  -   -   -  27 34 mph 1011.6mb 57f 45f
10:50pm 10ft 10s 6s 27 34 mph 1011.5mb 57f 45f
10:40pm  -   -   -  27 31 mph 1011.6mb 57f 45f
10:30pm  -   -   -  29 36 mph 1011.8mb 57f 45f
10:20pm  -   -   -  27 34 mph 1011.6mb 57f 45f
10:10pm  -   -   -  29 36 mph 1011.6mb 57f 45f
10:00pm  -   -   -  29 38 mph 1011.5mb 57f 45f
9:50pm 9.5ft 8s 6s 29 38 mph 1011.4mb 57f 45f
9:40pm  -   -   -  29 36 mph 1011.3mb 57f 45f
9:30pm  -   -   -  29 38 mph 1011mb 57f 46f
9:20pm  -   -   -  29 38 mph 1010.9mb 56f 46f
9:10pm  -   -   -  29 38 mph 1010.9mb 56f 46f
9:00pm  -   -   -  27 36 mph 1010.8mb 55f 46f
8:50pm 9ft 6s 6s 27 31 mph 1010.5mb 54f 46f
8:40pm  -   -   -  27 34 mph 1010.3mb 54f 46f
8:30pm  -   -   -  25 34 mph 1010.4mb 54f 46f
8:20pm  -   -   -  27 34 mph 1010.3mb 54f 46f
8:10pm  -   -   -  27 36 mph 1010.3mb 54f 47f
8:00pm  -   -   -  27 38 mph 1010.1mb 53f 46f
7:50pm 9ft 10s 6s 27 36 mph 1010mb 53f 47f
7:40pm 9ft  -  6s 29 38 mph 1009.9mb 53f 46f
7:30pm  -   -   -  29 38 mph 1009.9mb 53f 47f
7:20pm  -   -   -  29 36 mph 1009.6mb 53f 47f
7:10pm  -   -   -  29 38 mph 1009.5mb 53f 47f
7:00pm  -   -   -  27 36 mph 1009.5mb 53f 47f
6:50pm 8.5ft 9s 6s 29 38 mph 1009.3mb 53f 47f
6:40pm  -   -   -  27 34 mph 1009mb 53f 47f
6:30pm  -   -   -  29 36 mph 1009mb 53f 47f
6:20pm  -   -   -  27 38 mph 1008.9mb 53f 47f
6:10pm  -   -   -  29 36 mph 1008.9mb 53f 47f
6:00pm  -   -   -  29 36 mph 1008.5mb 53f 47f
5:50pm 8ft 7s 5s 27 34 mph 1008.4mb 53f 47f
5:40pm  -   -   -  27 43 mph 1008.3mb 53f 47f
5:30pm  -   -   -  27 31 mph 1008mb 53f 47f
5:20pm  -   -   -  25 36 mph 1007.8mb 53f 47f
5:10pm  -   -   -  25 36 mph 1007.5mb 53f 47f
5:00pm  -   -   -  27 34 mph 1007.3mb 53f 47f
4:50pm 8.5ft 8s 6s 25 31 mph 1007.3mb 53f 47f
4:40pm  -   -   -  27 36 mph 1007mb 53f 47f
4:30pm  -   -   -  27 36 mph 1007mb 53f 47f
4:20pm  -   -   -  27 36 mph 1007mb 53f 47f
4:10pm  -   -   -  27 34 mph 1006.9mb 53f 47f
4:00pm  -   -   -  27 34 mph 1006.9mb 53f 47f
3:50pm 9ft 7s 6s 25 34 mph 1006.6mb 53f 47f
3:40pm  -   -   -  25 31 mph 1006.5mb 53f 47f
3:30pm  -   -   -  25 31 mph 1006.4mb 53f 47f
3:20pm  -   -   -  22 31 mph 1006.4mb 53f 46f
3:10pm  -   -   -  25 31 mph 1006.4mb 53f 46f
3:00pm  -   -   -  25 34 mph 1006.5mb 53f 46f
2:50pm 9.5ft 8s 6s 27 36 mph 1006.5mb 53f 46f
2:40pm  -   -   -  27 34 mph 1006.5mb 54f 46f
2:30pm  -   -   -  27 34 mph 1006.5mb 54f 46f
2:20pm  -   -   -  27 36 mph 1006.5mb 54f 46f
2:10pm  -   -   -  29 38 mph 1006.5mb 54f 46f
2:00pm  -   -   -  29 38 mph 1006.5mb 54f 46f
1:50pm 9ft 8s 6s 29 38 mph 1006.4mb 54f 46f
1:40pm  -   -   -  27 31 mph 1006.4mb 54f 46f
1:30pm  -   -   -  27 36 mph 1006.3mb 54f 46f
1:20pm  -   -   -  29 36 mph 1006.3mb 54f 46f
1:10pm  -   -   -  27 36 mph 1006.4mb 54f 46f
1:00pm  -   -   -  27 36 mph 1006.5mb 55f 46f
12:50pm 10ft 8s 6s 27 34 mph 1006.5mb 55f 46f
12:40pm  -   -   -  27 36 mph 1006.8mb 55f 46f
12:30pm  -   -   -  29 36 mph 1006.9mb 55f 46f
12:20pm  -   -   -  29 36 mph 1007mb 55f 46f
12:10pm  -   -   -  29 38 mph 1007.1mb 55f 46f
12:00pm  -   -   -  29 38 mph 1007.5mb 56f 45f
11:50am 8.5ft 8s 6s 29 38 mph 1007.5mb 56f 46f
11:40am  -   -   -  29 36 mph 1007.8mb 56f 45f
11:30am  -   -   -  31 38 mph 1007.9mb 56f 45f
11:20am  -   -   -  31 40 mph 1008.1mb 56f 45f
11:10am  -   -   -  31 43 mph 1008.3mb 56f 45f
11:00am  -   -   -  31 40 mph 1008.5mb 56f 45f
10:50am 9ft 7s 6s 31 43 mph 1008.5mb 58f 46f
10:40am 9ft  -  6s 31 40 mph 1008.8mb 59f 46f
10:30am  -   -   -  29 38 mph 1008.9mb 59f 46f
10:20am  -   -   -  29 40 mph 1008.8mb 60f 45f
10:10am  -   -   -  31 40 mph 1008.9mb 60f 46f
10:00am  -   -   -  31 40 mph 1008.9mb 60f 45f
9:50am 9ft 7s 6s 31 38 mph 1008.8mb 60f 46f
9:40am  -   -   -  29 38 mph 1008.5mb 61f 46f
9:30am  -   -   -  29 36 mph 1008.4mb 62f 47f
9:20am  -   -   -  29 38 mph 1008mb 63f 46f
9:10am  -   -   -  29 36 mph 1007.8mb 63f 46f
9:00am  -   -   -  29 36 mph 1007.5mb 63f 47f
8:50am 9.5ft 7s 6s 29 36 mph 1007.4mb 63f 47f
8:40am  -   -   -  29 34 mph 1007mb 63f 47f
8:30am  -   -   -  27 36 mph 1006.9mb 63f 48f
8:20am  -   -   -  29 36 mph 1006.9mb 63f 48f
8:10am  -   -   -  29 38 mph 1006.8mb 63f 48f
8:00am  -   -   -  29 36 mph 1006.6mb 63f 48f
7:50am 9ft 7s 6s 29 38 mph 1006.5mb 63f 49f
7:40am  -   -   -  29 36 mph 1006.4mb 63f 49f
7:30am  -   -   -  29 36 mph 1006mb 63f 49f
7:20am  -   -   -  29 36 mph 1006mb 63f 49f
7:10am  -   -   -  31 38 mph 1006mb 63f 49f
7:00am  -   -   -  31 38 mph 1006mb 63f 50f
6:50am 9ft 7s 6s 29 36 mph 1005.6mb 62f 50f
6:40am  -   -   -  29 38 mph 1005.5mb 62f 50f
6:30am  -   -   -  29 34 mph 1005.3mb 62f 49f
6:20am  -   -   -  29 36 mph 1005.4mb 62f 49f
6:10am  -   -   -  29 38 mph 1005.5mb 62f 49f
6:00am  -   -   -  31 36 mph 1005.4mb 62f 49f
5:50am 8ft 8s 5s 31 38 mph 1005.3mb 62f 49f
5:40am  -   -   -  31 38 mph 1005.1mb 61f 50f
5:30am  -   -   -  31 38 mph 1004.9mb 61f 50f
5:20am  -   -   -  29 38 mph 1004.5mb 61f 50f
5:10am  -   -   -  29 36 mph 1004.5mb 61f 50f
5:00am  -   -   -  29 38 mph 1004.4mb 61f 51f
4:50am 7ft 8s 5s 27 36 mph 1004.3mb 61f 51f
4:40am  -   -   -  27 36 mph 1004.3mb 61f 51f
4:30am  -   -   -  27 34 mph 1004mb 61f 51f
4:20am  -   -   -  27 34 mph 1004mb 61f 51f
4:10am  -   -   -  27 34 mph 1004mb 61f 52f
4:00am  -   -   -  27 31 mph 1003.9mb 61f 52f
3:50am 7.5ft 8s 6s 25 31 mph 1003.6mb 61f 52f
3:40am  -   -   -  27 31 mph 1003.5mb 61f 52f
3:30am  -   -   -  27 34 mph 1003.4mb 61f 52f
3:20am  -   -   -  27 31 mph 1003.3mb 61f 52f
3:10am  -   -   -  27 36 mph 1003.4mb 61f 52f
3:00am  -   -   -  25 34 mph 1003.4mb 61f 53f
2:50am 6.5ft 7s 6s 25 34 mph 1003.5mb 61f 53f
2:40am  -   -   -  18 25 mph 1003.6mb 61f 53f
2:30am  -   -   -  20 25 mph 1003.6mb 61f 53f
2:20am  -   -   -  22 27 mph 1003.5mb 61f 53f
2:10am  -   -   -  22 27 mph 1004mb 61f 53f
2:00am  -   -   -  20 27 mph 1003.8mb 61f 53f
1:50am 7ft 8s 6s 20 27 mph 1004mb 61f 53f
1:40am 7ft  -  6s 13 20 mph 1004mb 61f 51f
1:30am  -   -   -  20 27 mph 1004.4mb 61f 51f
1:20am  -   -   -  13 20 mph 1004.5mb 61f 51f
1:10am  -   -   -  16 27 mph 1004.5mb 61f 51f
1:00am  -   -   -  22 29 mph 1004.5mb 61f 51f
12:50am 7.5ft 8s 5s 16 22 mph 1004.5mb 61f 51f
12:40am  -   -   -  20 29 mph 1004.8mb 61f 51f
12:30am  -   -   -  20 27 mph 1004.6mb 61f 50f
12:20am  -   -   -  22 29 mph 1004.5mb 61f 50f
12:10am  -   -   -  22 31 mph 1004.5mb 61f 49f
12:00am  -   -   -  27 34 mph 1004.8mb 61f 50f
Mon 02/08 11:50pm 8ft 8s 6s 27 36 mph 1004.6mb 61f 51f
11:40pm  -   -   -  27 36 mph 1004.4mb 61f 52f
11:30pm  -   -   -  29 38 mph 1004.1mb - 53f
11:20pm  -   -   -  25 31 mph 1004mb 62f 53f
11:10pm  -   -   -  22 31 mph 1004.3mb 62f 53f
11:00pm  -   -   -  22 29 mph 1004.4mb 62f 53f
10:50pm 8ft 8s 6s 22 29 mph 1004.8mb 62f 52f
10:40pm  -   -   -  25 29 mph 1004.6mb 62f 52f
10:30pm  -   -   -  27 34 mph 1004.8mb 62f 53f
10:20pm  -   -   -  29 36 mph 1004.8mb 62f 53f
10:10pm  -   -   -  27 34 mph 1004.8mb 62f 53f
10:00pm  -   -   -  27 34 mph 1005mb 62f 52f
9:50pm 9ft 8s 6s 27 36 mph 1005.3mb 62f 52f
9:40pm  -   -   -  29 38 mph 1005.8mb 62f 51f
9:30pm  -   -   -  29 38 mph 1005.9mb 62f 51f
9:20pm  -   -   -  31 38 mph 1006mb 62f 51f
9:10pm  -   -   -  31 40 mph 1005.8mb 63f 52f
9:00pm  -   -   -  31 40 mph 1005.8mb 63f 54f
8:50pm 9ft 8s 6s 29 40 mph 1005.5mb 63f 58f
8:40pm  -   -   -  29 34 mph 1005.3mb 63f 60f
8:30pm  -   -   -  27 36 mph 1005.5mb 63f 60f
8:20pm  -   -   -  27 34 mph 1005.6mb 62f 60f
8:10pm  -   -   -  27 36 mph 1005.8mb 62f 60f
8:00pm  -   -   -  29 36 mph 1005.8mb 62f 60f
7:50pm 9ft 7s 6s 29 38 mph 1005.8mb 62f 60f
7:40pm  -   -   -  29 36 mph 1005.8mb 62f 60f
7:30pm  -   -   -  29 36 mph 1005.8mb 62f 59f
7:20pm  -   -   -  29 38 mph 1005.9mb - 59f
7:10pm  -   -   -  29 36 mph 1005.9mb 62f 59f
7:00pm  -   -   -  29 36 mph 1005.8mb 62f 59f
6:50pm 7.5ft 6s 5s 31 38 mph 1005.8mb 61f 59f
6:40pm  -   -   -  29 40 mph 1005.8mb 62f 59f
6:30pm  -   -   -  29 38 mph 1005.8mb 61f 59f
6:20pm  -   -   -  29 36 mph 1005.8mb 62f 59f
6:10pm  -   -   -  29 38 mph 1005.6mb 62f 59f
6:00pm  -   -   -  29 36 mph 1005.8mb 62f 59f
5:50pm 6ft 6s 5s 27 34 mph 1005.8mb 62f 59f
5:40pm  -   -   -  27 34 mph 1005.8mb 61f 59f
5:30pm  -   -   -  25 34 mph 1005.9mb 61f 59f
5:20pm  -   -   -  27 36 mph 1006mb 61f 58f
5:10pm  -   -   -  25 34 mph 1006mb 61f 58f
5:00pm  -   -   -  25 31 mph 1006.1mb 61f 58f
4:50pm 5.5ft 5s 5s 25 31 mph 1006.3mb 60f 58f
4:40pm  -   -   -  22 31 mph 1006.5mb 60f 58f
4:30pm  -   -   -  22 31 mph 1006.5mb 60f 58f
4:20pm  -   -   -  25 31 mph 1006.6mb 60f 58f
4:10pm  -   -   -  25 29 mph 1006.8mb 60f 58f
4:00pm  -   -   -  25 31 mph 1006.6mb 60f 58f
3:50pm 5ft 4s 4s 25 34 mph 1007mb 60f 58f
3:40pm  -   -   -  25 29 mph 1006.9mb 59f 57f
3:30pm  -   -   -  25 31 mph 1007mb 59f 57f
3:20pm  -   -   -  25 31 mph 1007.3mb 59f 57f
3:10pm  -   -   -  22 31 mph 1007.4mb 59f 57f
3:00pm  -   -   -  22 29 mph 1007.5mb 59f 57f
2:50pm 4ft 9s 5s 22 27 mph 1007.5mb 59f 56f
2:40pm  -   -   -  22 29 mph 1007.9mb 59f 56f
2:30pm  -   -   -  22 29 mph 1007.9mb 59f 57f
2:20pm  -   -   -  22 27 mph 1008.1mb - 57f
2:10pm  -   -   -  22 29 mph 1008mb 59f 57f
2:00pm  -   -   -  20 25 mph 1008.1mb 59f 57f
1:50pm 3.5ft 7s 6s 20 27 mph 1008.1mb 59f 57f
1:40pm  -   -   -  18 25 mph 1008.5mb 59f 56f
1:30pm  -   -   -  13 20 mph 1008.8mb 59f 55f
1:20pm  -   -   -  11 18 mph 1009mb 59f 55f
1:10pm  -   -   -  9 13 mph 1009.3mb 59f 53f
1:00pm  -   -   -  7 13 mph 1009.5mb 60f 53f
12:50pm 4.5ft 9s 6s 4 9 mph 1009.9mb 60f 52f
12:40pm  -   -   -  4 9 mph 1010.3mb 60f 52f
12:30pm  -   -   -  2 7 mph 1010.5mb 60f 51f
12:20pm  -   -   -  2 7 mph 1010.6mb 60f 51f
12:10pm  -   -   -  2 4 mph 1010.9mb 60f 51f
12:00pm  -   -   -   -  4 mph 1011mb 60f 51f
11:50am 4.5ft 11s 6s  -  4 mph 1011.1mb 60f 50f
11:40am  -   -   -  2 7 mph 1011.4mb 61f 49f
11:30am  -   -   -  4 7 mph 1011.5mb 61f 49f
11:20am  -   -   -  4 9 mph 1011.5mb 61f 49f
11:10am  -   -   -  4 9 mph 1011.8mb 61f 49f
11:00am  -   -   -  4 9 mph 1012mb 61f 49f
10:50am 4.5ft 11s 6s 7 9 mph 1012.1mb 62f 49f
10:40am  -   -   -  7 9 mph 1012.3mb 62f 49f
10:30am  -   -   -  7 9 mph 1012.3mb 62f 49f
10:20am  -   -   -  7 9 mph 1012.1mb 62f 49f
10:10am  -   -   -  7 9 mph 1012.1mb 62f 49f
10:00am  -   -   -  7 9 mph 1012mb 62f 49f
9:50am 5ft 7s 6s 7 11 mph 1012.1mb 62f 48f
9:40am  -   -   -  9 13 mph 1012mb 62f 49f
9:30am  -   -   -  9 13 mph 1012.1mb 63f 48f
9:20am  -   -   -  9 13 mph 1012mb 63f 48f
9:10am  -   -   -  9 13 mph 1012.1mb 63f 48f
9:00am  -   -   -  11 13 mph 1012mb 63f 48f
8:50am 5ft 8s 5s 11 16 mph 1012mb 63f 48f
8:40am  -   -   -  11 16 mph 1012.3mb 63f 48f
8:30am  -   -   -  13 18 mph 1012.3mb 63f 48f
8:20am  -   -   -  13 18 mph 1012.3mb 63f 48f
8:10am  -   -   -  13 18 mph 1012.4mb 63f 48f
8:00am  -   -   -  16 20 mph 1012.5mb 63f 48f
7:50am 6ft 5s 5s 16 20 mph 1012.5mb 63f 48f
7:40am 6ft  -  5s 16 22 mph 1012.5mb 64f 48f
7:30am  -   -   -  18 22 mph 1012.3mb 64f 48f
7:20am  -   -   -  18 22 mph 1012mb 64f 49f
7:10am  -   -   -  18 25 mph 1011.8mb 64f 49f
7:00am  -   -   -  18 25 mph 1011.5mb 64f 49f
6:50am 6ft 6s 5s 20 25 mph 1011.5mb 64f 49f
6:40am  -   -   -  18 22 mph 1011.5mb 64f 49f
6:30am  -   -   -  20 25 mph 1011.4mb 64f 49f
6:20am  -   -   -  20 25 mph 1011.4mb 64f 49f
6:10am  -   -   -  20 25 mph 1011.1mb 64f 49f
6:00am  -   -   -  20 27 mph 1011.4mb 64f 50f
5:50am 7ft 6s 6s 22 27 mph 1011.1mb 64f 49f
5:40am 7ft  -  6s 22 27 mph 1011.1mb 64f 49f
5:30am  -   -   -  22 29 mph 1011mb - -
5:20am  -   -   -  22 27 mph 1011mb 64f 49f
5:10am  -   -   -  22 29 mph 1010.9mb 63f 49f
5:00am  -   -   -  25 29 mph 1010.8mb 63f 49f
4:50am 8ft 6s 6s 22 29 mph 1010.6mb 63f 49f
4:40am  -   -   -  25 31 mph 1010.5mb 63f 49f
4:30am  -   -   -  25 34 mph 1010.3mb 63f 49f
4:20am  -   -   -  25 31 mph 1010.1mb 63f 49f
4:10am  -   -   -  25 31 mph 1010mb 63f 49f
4:00am  -   -   -  25 31 mph 1009.9mb 63f 49f
3:50am 8.5ft 7s 6s 27 31 mph 1009.8mb 63f 49f
3:40am  -   -   -  27 34 mph 1009.6mb 63f 49f
3:30am  -   -   -  27 36 mph 1009.6mb 62f 49f
3:20am  -   -   -  29 36 mph 1009.5mb 62f 49f
3:10am  -   -   -  29 36 mph 1009.5mb 62f 49f
3:00am  -   -   -  27 34 mph 1009.5mb 62f 49f
2:50am 9ft 7s 6s 27 34 mph 1009.4mb 62f 49f
2:40am  -   -   -  27 34 mph 1009.3mb 62f 49f
2:30am  -   -   -  27 34 mph 1009.1mb 62f 49f
2:20am  -   -   -  27 34 mph 1009mb 61f 49f
2:10am  -   -   -  27 34 mph 1009mb 61f 49f
2:00am  -   -   -  29 36 mph 1008.9mb 61f 49f
1:50am 10ft 7s 6s 29 38 mph 1008.5mb 61f 49f
1:40am  -   -   -  29 36 mph 1008.5mb 61f 48f
1:30am  -   -   -  29 38 mph 1008.5mb 62f 48f
1:20am  -   -   -  29 38 mph 1008.5mb 61f 48f
1:10am  -   -   -  29 38 mph 1008.5mb 62f 48f
1:00am  -   -   -  31 38 mph 1008.5mb 62f 48f
12:50am 11.5ft 7s 6s 31 40 mph 1008.5mb 62f 48f
12:40am  -   -   -  31 45 mph 1008.5mb 62f 48f
12:30am  -   -   -  31 43 mph 1008.4mb 62f 48f
12:20am  -   -   -  31 43 mph 1008.1mb 62f 48f
12:10am  -   -   -  34 43 mph 1008.1mb 62f 48f
12:00am  -   -   -  31 40 mph 1008mb 63f 48f
Sun 02/07 11:50pm 12ft 7s 6s 31 40 mph 1007.9mb 63f 48f
11:40pm  -   -   -  34 43 mph 1007.9mb 63f 48f
11:30pm  -   -   -  34 43 mph 1007.8mb 63f 48f
11:20pm  -   -   -  34 43 mph 1007.6mb 63f 47f
11:10pm  -   -   -  34 45 mph 1007.5mb 64f 48f
11:00pm  -   -   -  34 43 mph 1007.4mb 64f 48f
10:50pm 13ft 7s 6s 36 45 mph 1007.3mb 64f 47f
10:40pm  -   -   -  36 43 mph 1007.3mb 64f 48f
10:30pm  -   -   -  34 45 mph 1006.8mb 64f 48f
10:20pm  -   -   -  36 49 mph 1006.5mb - 47f
10:10pm  -   -   -  36 47 mph 1006.8mb 65f 47f
10:00pm  -   -   -  38 51 mph 1006.5mb 65f 47f
9:50pm 14ft 7s 7s 36 49 mph 1006.1mb 65f 47f
9:40pm  -   -   -  38 49 mph 1006mb 65f 47f
9:30pm  -   -   -  40 51 mph 1006mb 66f 46f
9:20pm  -   -   -  38 51 mph 1006mb 66f 46f
9:10pm  -   -   -  38 49 mph 1005.9mb 66f 46f
9:00pm  -   -   -  38 49 mph 1005.9mb 66f 46f
8:50pm 15ft 8s 7s 38 49 mph 1005.5mb 66f 46f
8:40pm  -   -   -  38 49 mph 1005.4mb 66f 46f
8:30pm  -   -   -  40 49 mph 1005.4mb 66f 45f
8:20pm  -   -   -  40 49 mph 1005.1mb 66f 45f
8:10pm  -   -   -  40 51 mph 1005mb 66f 45f
8:00pm  -   -   -  40 54 mph 1004.6mb 66f 46f
7:50pm 15.5ft 8s 7s 40 54 mph 1004.5mb 66f 45f
7:40pm  -   -   -  43 54 mph 1004.4mb 66f 45f
7:30pm  -   -   -  43 56 mph 1004.3mb 66f 45f
7:20pm  -   -   -  43 51 mph 1004.1mb 67f 45f
7:10pm  -   -   -  45 56 mph 1003.8mb 67f 45f
7:00pm  -   -   -  45 58 mph 1003.4mb 67f 45f
6:50pm 15.5ft 7s 7s 45 58 mph 1003.3mb 67f 45f
6:40pm  -   -   -  45 58 mph 1003mb 67f 44f
6:30pm  -   -   -  45 60 mph 1002.9mb 67f 44f
6:20pm  -   -   -  47 58 mph 1002.9mb 67f 44f
6:10pm  -   -   -  47 58 mph 1002.6mb 67f 44f
6:00pm  -   -   -  47 60 mph 1002.4mb 67f 44f
5:50pm 15ft 8s 7s 47 60 mph 1002.1mb 67f 44f
5:40pm  -   -   -  47 60 mph 1002mb 67f 44f